Time;durP1;ratioP1;P1;durP2;ratioP2;P2;SDS_P1;SDS_P2;PMS_P1;PMS_P2;Temp;Humidity;BMP_temperature;BMP_pressure;BME280_temperature;BME280_humidity;BME280_pressure;Samples;Min_cycle;Max_cycle;Signal;HPM_P1;HPM_P2
2022/01/24 00:00:28;;;;;;;32.13;16.33;;;4.60;99.90;;;;;;4864352;29;20053;-89
2022/01/24 00:02:53;;;;;;;33.90;17.60;;;4.40;99.90;;;;;;4865225;29;20143;-87
2022/01/24 00:05:19;;;;;;;30.47;16.77;;;4.70;99.90;;;;;;4881304;29;20128;-90
2022/01/24 00:07:45;;;;;;;31.27;16.90;;;4.50;99.90;;;;;;4879893;29;20117;-87
2022/01/24 00:10:16;;;;;;;32.13;16.63;;;4.60;99.90;;;;;;4865616;29;20097;-87
2022/01/24 00:18:13;;;;;;;30.98;16.13;;;6.20;99.90;;;;;;4875609;29;20538;-87
2022/01/24 00:28:51;;;;;;;34.10;16.27;;;4.70;99.90;;;;;;4864148;29;20497;-89
2022/01/24 00:31:17;;;;;;;30.47;15.83;;;5.60;99.90;;;;;;4864942;29;20041;-87
2022/01/24 00:34:01;;;;;;;30.83;15.73;;;4.60;99.90;;;;;;4864790;29;20075;-87
2022/01/24 00:36:46;;;;;;;32.33;16.30;;;4.80;99.90;;;;;;4879560;29;20163;-87
2022/01/24 00:39:12;;;;;;;26.53;14.23;;;4.40;99.90;;;;;;4864619;29;20113;-87
2022/01/24 00:41:48;;;;;;;28.37;14.60;;;4.60;99.90;;;;;;4864092;29;20045;-87
2022/01/24 00:44:50;;;;;;;26.60;13.83;;;5.50;99.90;;;;;;4863532;29;20485;-87
2022/01/24 00:47:36;;;;;;;28.07;14.73;;;4.40;99.90;;;;;;4864617;29;20048;-87
2022/01/24 00:53:50;;;;;;;24.60;13.00;;;6.30;99.90;;;;;;4864995;29;20060;-87
2022/01/24 00:56:04;;;;;;;24.70;13.27;;;4.60;99.90;;;;;;4883653;29;20060;-87
2022/01/24 00:58:33;;;;;;;24.10;12.97;;;4.60;99.90;;;;;;4879285;29;20150;-87
2022/01/24 01:00:59;;;;;;;23.30;12.57;;;4.40;99.90;;;;;;4880371;29;20168;-87
2022/01/24 01:03:40;;;;;;;22.93;11.87;;;4.60;99.90;;;;;;4862246;29;20065;-88
2022/01/24 01:06:10;;;;;;;21.73;12.03;;;5.80;99.90;;;;;;4864298;29;20056;-88
2022/01/24 01:19:49;;;;;;;17.70;9.73;;;4.60;99.90;;;;;;4864053;29;20049;-87
2022/01/24 01:22:14;;;;;;;19.10;10.23;;;5.00;99.90;;;;;;4863659;29;20044;-87
2022/01/24 01:24:47;;;;;;;17.57;10.37;;;4.60;99.90;;;;;;4879743;29;20045;-87
2022/01/24 01:27:21;;;;;;;19.10;10.30;;;4.60;99.90;;;;;;4864207;29;20477;-87
2022/01/24 01:29:59;;;;;;;18.65;9.82;;;4.80;99.90;;;;;;4871385;29;20076;-87
2022/01/24 01:38:28;;;;;;;17.00;9.47;;;4.50;99.90;;;;;;4879641;29;20406;-87
2022/01/24 01:57:02;;;;;;;18.17;9.63;;;4.60;99.90;;;;;;4879673;29;20056;-87
2022/01/24 01:59:28;;;;;;;18.20;9.07;;;4.50;99.90;;;;;;4878671;29;20454;-88
2022/01/24 02:02:09;;;;;;;18.53;9.83;;;4.40;99.90;;;;;;4863229;29;20049;-87
2022/01/24 02:04:44;;;;;;;19.43;10.03;;;4.40;99.90;;;;;;4863009;29;20061;-88
2022/01/24 02:07:19;;;;;;;17.53;9.87;;;3.70;99.90;;;;;;4877832;29;20045;-87
2022/01/24 02:09:57;;;;;;;18.83;9.97;;;4.30;99.90;;;;;;4868457;29;20049;-87
2022/01/24 02:12:32;;;;;;;20.13;10.43;;;4.30;99.90;;;;;;4862848;29;20490;-87
2022/01/24 02:15:07;;;;;;;18.83;10.17;;;5.40;99.90;;;;;;4862356;29;20131;-88
2022/01/24 02:20:37;;;;;;;17.70;9.87;;;5.60;99.90;;;;;;4870380;29;20048;-87
2022/01/24 02:26:09;;;;;;;20.77;10.97;;;4.30;99.90;;;;;;4863848;29;20057;-87
2022/01/24 02:29:02;;;;;;;19.43;10.43;;;4.30;99.90;;;;;;4878660;29;20498;-88
2022/01/24 02:31:52;;;;;;;19.13;10.47;;;4.50;99.90;;;;;;4878115;29;20067;-87
2022/01/24 02:34:40;;;;;;;19.57;10.40;;;4.30;99.90;;;;;;4878643;29;20056;-87
2022/01/24 02:37:09;;;;;;;18.63;9.87;;;4.50;99.90;;;;;;4877909;29;20493;-88
2022/01/24 02:39:49;;;;;;;18.67;10.20;;;4.40;99.90;;;;;;4862058;29;20056;-87
2022/01/24 02:52:59;;;;;;;19.50;10.40;;;5.20;99.90;;;;;;4862584;29;20421;-87
2022/01/24 02:55:25;;;;;;;21.17;11.33;;;4.50;99.90;;;;;;4861932;29;20057;-87
2022/01/24 02:57:51;;;;;;;24.77;11.90;;;4.50;99.90;;;;;;4862559;29;20093;-87
2022/01/24 03:00:16;;;;;;;22.70;12.27;;;4.50;99.90;;;;;;4862020;29;20045;-87
2022/01/24 03:02:42;;;;;;;19.37;11.10;;;4.50;99.90;;;;;;4861175;29;20041;-87
2022/01/24 03:05:08;;;;;;;21.47;11.77;;;4.40;99.90;;;;;;4862729;29;20049;-87
2022/01/24 03:07:34;;;;;;;19.93;11.67;;;4.40;99.90;;;;;;4861717;29;20382;-87
2022/01/24 03:10:13;;;;;;;21.30;11.47;;;4.40;99.90;;;;;;4861989;29;20084;-87
2022/01/24 03:12:42;;;;;;;23.00;12.07;;;4.50;99.90;;;;;;4862550;29;20080;-87
2022/01/24 03:15:20;;;;;;;22.63;12.23;;;4.80;99.90;;;;;;4862047;29;20068;-87
2022/01/24 03:17:49;;;;;;;20.30;10.90;;;4.40;99.90;;;;;;4879046;29;20088;-87
2022/01/24 03:20:27;;;;;;;22.67;11.50;;;4.20;99.90;;;;;;4879347;29;20049;-87
2022/01/24 03:23:01;;;;;;;23.23;11.90;;;4.50;99.90;;;;;;4864122;29;20060;-87
2022/01/24 03:25:28;;;;;;;23.13;12.10;;;6.00;99.90;;;;;;4861452;29;20049;-87
2022/01/24 03:27:59;;;;;;;24.37;13.67;;;4.30;99.90;;;;;;4862566;29;20045;-87
2022/01/24 03:30:41;;;;;;;39.07;18.53;;;4.20;99.90;;;;;;4862768;29;20060;-87
2022/01/24 03:33:16;;;;;;;28.10;13.13;;;4.20;99.90;;;;;;4865851;29;20049;-87
2022/01/24 03:35:57;;;;;;;22.40;11.80;;;4.20;99.90;;;;;;4865757;29;20101;-87
2022/01/24 03:38:29;;;;;;;25.03;13.63;;;4.00;99.90;;;;;;4864739;29;20133;-87
2022/01/24 03:41:06;;;;;;;35.60;17.83;;;4.30;99.90;;;;;;4865890;29;20544;-87
2022/01/24 03:43:47;;;;;;;46.90;20.90;;;4.10;99.90;;;;;;4865149;29;20529;-87
2022/01/24 03:46:36;;;;;;;27.57;14.80;;;4.60;99.90;;;;;;4864600;29;20410;-87
2022/01/24 03:49:48;;;;;;;31.07;16.57;;;5.40;99.90;;;;;;4865183;29;20116;-87
2022/01/24 03:52:17;;;;;;;70.37;30.17;;;5.20;99.90;;;;;;4864958;29;20057;-87
2022/01/24 03:54:43;;;;;;;30.00;15.23;;;4.70;99.90;;;;;;4873968;29;20044;-87
2022/01/24 03:57:15;;;;;;;39.40;20.10;;;4.40;99.90;;;;;;4875713;29;20041;-87
2022/01/24 03:59:41;;;;;;;45.67;23.50;;;4.40;99.90;;;;;;4864790;29;20486;-87
2022/01/24 04:02:07;;;;;;;30.50;16.53;;;4.50;99.90;;;;;;4865851;29;20041;-88
2022/01/24 04:04:33;;;;;;;26.03;13.80;;;5.70;99.90;;;;;;4865939;29;20049;-87
2022/01/24 04:09:27;;;;;;;31.37;17.20;;;4.50;99.90;;;;;;4947185;23;20060;-88
2022/01/24 04:11:56;;;;;;;33.60;18.03;;;4.50;99.90;;;;;;4883974;29;20100;-87
2022/01/24 04:22:18;;;;;;;34.50;18.23;;;4.40;99.90;;;;;;4883369;29;20053;-87
2022/01/24 04:25:02;;;;;;;34.43;17.60;;;4.30;99.90;;;;;;4883678;29;20120;-87
2022/01/24 04:27:29;;;;;;;35.53;19.13;;;4.40;99.90;;;;;;4882503;29;20052;-87
2022/01/24 04:29:56;;;;;;;31.07;16.27;;;5.90;99.90;;;;;;4883211;29;20317;-87
2022/01/24 04:32:41;;;;;;;36.77;18.80;;;4.40;99.90;;;;;;4894907;29;20493;-87
2022/01/24 04:35:22;;;;;;;37.23;19.63;;;4.30;99.90;;;;;;4887629;29;20045;-87
2022/01/24 04:37:54;;;;;;;44.67;22.43;;;4.20;99.90;;;;;;4883650;29;20121;-87
2022/01/24 04:40:32;;;;;;;35.97;19.50;;;4.70;99.90;;;;;;4882565;29;20045;-87
2022/01/24 04:43:31;;;;;;;47.83;23.67;;;6.40;99.90;;;;;;4882643;29;20105;-87
2022/01/24 04:56:38;;;;;;;49.07;24.17;;;4.60;99.90;;;;;;4882334;29;20058;-87
2022/01/24 04:59:08;;;;;;;39.07;18.33;;;4.60;99.90;;;;;;4882692;29;20057;-87
2022/01/24 05:01:34;;;;;;;35.83;19.37;;;4.50;99.90;;;;;;4881806;29;20067;-87
2022/01/24 05:04:00;;;;;;;41.63;21.87;;;4.30;99.90;;;;;;4881667;29;20409;-87
2022/01/24 05:06:25;;;;;;;38.80;20.37;;;5.50;99.90;;;;;;4881412;29;20087;-87
2022/01/24 05:08:52;;;;;;;48.27;23.63;;;4.40;99.90;;;;;;4898638;29;20059;-87
2022/01/24 05:11:39;;;;;;;40.93;21.20;;;4.30;99.90;;;;;;4883512;29;20052;-87
2022/01/24 05:25:38;;;;;;;42.10;21.77;;;4.50;99.90;;;;;;4882259;29;20080;-87
2022/01/24 05:28:03;;;;;;;44.07;21.90;;;4.50;99.90;;;;;;4881994;29;20135;-88
2022/01/24 05:30:29;;;;;;;38.43;21.20;;;4.40;99.90;;;;;;4880699;29;20139;-87
2022/01/24 05:32:55;;;;;;;46.97;24.70;;;4.40;99.90;;;;;;4882553;29;20048;-87
2022/01/24 05:35:20;;;;;;;43.40;21.73;;;4.40;99.90;;;;;;4882076;29;20511;-87
2022/01/24 05:37:46;;;;;;;43.83;23.50;;;4.40;99.90;;;;;;4881483;29;20052;-87
2022/01/24 05:40:14;;;;;;;46.73;23.67;;;4.40;99.90;;;;;;4881689;29;20048;-87
2022/01/24 05:42:40;;;;;;;42.87;22.77;;;4.40;99.90;;;;;;4882108;29;20048;-87
2022/01/24 05:45:07;;;;;;;43.80;22.53;;;4.40;99.90;;;;;;4911658;29;20048;-87
2022/01/24 05:47:32;;;;;;;43.53;22.47;;;4.40;99.90;;;;;;4883801;29;20076;-87
2022/01/24 05:49:58;;;;;;;44.90;22.43;;;4.30;99.90;;;;;;4881740;29;20517;-87
2022/01/24 05:52:24;;;;;;;47.93;25.43;;;4.30;99.90;;;;;;4880193;29;20045;-87
2022/01/24 05:54:49;;;;;;;54.40;25.23;;;4.30;99.90;;;;;;4881820;29;20139;-87
2022/01/24 05:57:15;;;;;;;43.03;22.70;;;4.30;99.90;;;;;;4881695;29;20135;-87
2022/01/24 05:59:41;;;;;;;43.47;22.73;;;4.30;99.90;;;;;;4880471;29;20048;-87
2022/01/24 06:02:07;;;;;;;50.03;24.93;;;4.20;99.90;;;;;;4898175;29;20048;-87
2022/01/24 06:04:32;;;;;;;46.87;24.03;;;4.20;99.90;;;;;;4881087;29;20055;-87
2022/01/24 06:07:13;;;;;;;45.00;23.10;;;4.20;99.90;;;;;;4880406;29;20041;-87
2022/01/24 06:09:38;;;;;;;47.93;23.00;;;4.60;99.90;;;;;;4881171;29;20096;-86
2022/01/24 06:12:10;;;;;;;47.73;23.97;;;4.00;99.90;;;;;;4880663;29;20044;-87
2022/01/24 06:14:36;;;;;;;49.97;23.80;;;4.20;99.90;;;;;;4894552;23;20092;-87
2022/01/24 06:17:02;;;;;;;45.37;22.97;;;4.20;99.90;;;;;;4881242;29;20040;-87
2022/01/24 06:19:28;;;;;;;49.60;26.33;;;4.20;99.90;;;;;;4883717;29;20107;-87
2022/01/24 06:21:53;;;;;;;45.53;24.10;;;4.10;99.90;;;;;;4894571;29;20040;-87
2022/01/24 06:24:19;;;;;;;47.10;24.33;;;4.20;99.90;;;;;;4881733;29;20136;-87
2022/01/24 06:26:46;;;;;;;47.80;24.03;;;4.20;99.90;;;;;;4880939;29;20450;-87
2022/01/24 06:29:12;;;;;;;47.93;24.37;;;4.20;99.90;;;;;;4880756;29;20060;-88
2022/01/24 06:31:56;;;;;;;47.90;23.93;;;4.10;99.90;;;;;;4881099;29;20040;-88
2022/01/24 06:34:22;;;;;;;47.77;24.30;;;4.20;99.90;;;;;;4880016;29;20100;-87
2022/01/24 06:36:48;;;;;;;51.93;25.67;;;4.50;99.90;;;;;;4881313;29;20048;-87
2022/01/24 06:39:29;;;;;;;52.07;25.57;;;4.00;99.90;;;;;;4880947;29;20497;-87
2022/01/24 06:42:21;;;;;;;50.87;25.90;;;3.90;99.90;;;;;;4880476;29;20048;-88
2022/01/24 06:45:11;;;;;;;48.67;24.93;;;4.10;99.90;;;;;;4880209;29;20064;-87
2022/01/24 06:47:46;;;;;;;49.57;24.10;;;4.40;99.90;;;;;;4880395;29;20500;-87
2022/01/24 06:50:12;;;;;;;51.57;25.20;;;5.10;99.90;;;;;;4881226;29;20183;-87
2022/01/24 06:52:48;;;;;;;50.33;24.17;;;4.00;99.90;;;;;;4880737;29;20497;-87
2022/01/24 06:55:25;;;;;;;49.60;24.77;;;4.10;99.90;;;;;;4880643;29;20055;-88
2022/01/24 06:58:10;;;;;;;52.23;25.73;;;4.00;99.90;;;;;;4895759;29;20097;-87
2022/01/24 07:00:45;;;;;;;49.23;23.70;;;5.70;99.90;;;;;;4883512;29;20036;-87
2022/01/24 07:03:10;;;;;;;53.93;25.67;;;3.80;99.90;;;;;;4880326;29;20064;-88
2022/01/24 07:06:04;;;;;;;52.30;25.20;;;4.00;99.90;;;;;;4884943;29;20044;-94
2022/01/24 07:15:43;;;;;;;54.97;25.77;;;4.00;99.90;;;;;;4901556;29;20064;-95
2022/01/24 07:24:06;;;;;;;47.00;23.30;;;4.10;99.90;;;;;;4920635;23;21125;-96
2022/01/24 07:27:06;;;;;;;52.30;25.07;;;3.30;99.90;;;;;;4904227;29;20052;-96
2022/01/24 07:29:38;;;;;;;51.10;23.67;;;3.90;99.90;;;;;;4890961;29;20044;-96
2022/01/24 07:32:13;;;;;;;48.93;23.70;;;5.50;99.90;;;;;;4908715;29;20084;-94
2022/01/24 07:34:54;;;;;;;54.60;25.57;;;3.10;99.90;;;;;;4902371;29;20085;-92
2022/01/24 07:37:29;;;;;;;50.27;24.40;;;4.10;99.90;;;;;;4903189;29;20151;-94
2022/01/24 07:40:13;;;;;;;53.23;25.07;;;4.10;99.90;;;;;;4885464;29;20052;-92
2022/01/24 07:42:55;;;;;;;;;;;3.40;99.90;;;;;;4886403;29;20067;-94
2022/01/24 07:45:25;;;;;;;47.40;23.77;;;3.70;99.90;;;;;;4900895;29;19930;-93
2022/01/24 07:48:03;;;;;;;50.27;25.43;;;4.20;99.90;;;;;;4870753;29;20088;-95
2022/01/24 07:50:41;;;;;;;49.67;26.43;;;4.30;99.90;;;;;;4885209;29;20099;-94
2022/01/24 07:53:25;;;;;;;47.90;25.60;;;4.20;99.90;;;;;;4885498;29;20386;-93
2022/01/24 07:56:11;;;;;;;;;;;5.50;99.90;;;;;;4898642;29;20115;-92
2022/01/24 07:58:44;;;;;;;48.73;24.97;;;5.10;99.90;;;;;;4893519;29;19928;-92
2022/01/24 08:01:11;;;;;;;52.55;26.58;;;4.10;99.90;;;;;;4874167;29;20524;-90
2022/01/24 08:03:54;;;;;;;51.83;24.73;;;4.00;99.90;;;;;;4881513;29;20485;-95
2022/01/24 08:06:34;;;;;;;50.90;26.05;;;4.70;99.90;;;;;;4902426;29;20053;-94
2022/01/24 08:09:00;;;;;;;50.73;26.37;;;5.20;99.90;;;;;;4904526;29;20040;-88
2022/01/24 08:11:35;;;;;;;50.90;26.17;;;4.20;99.90;;;;;;4919004;29;20059;-90
2022/01/24 08:14:01;;;;;;;52.53;27.00;;;4.80;99.90;;;;;;4900530;29;20128;-94
2022/01/24 08:16:35;;;;;;;48.70;25.57;;;4.20;99.90;;;;;;4900461;29;20068;-92
2022/01/24 08:19:13;;;;;;;48.70;26.25;;;5.70;99.90;;;;;;4883949;29;20053;-92
2022/01/24 08:21:40;;;;;;;50.07;25.77;;;5.40;99.90;;;;;;4904551;23;20053;-93
2022/01/24 08:24:07;;;;;;;48.43;25.70;;;4.70;99.90;;;;;;4860903;29;20129;-92
2022/01/24 08:26:39;;;;;;;52.53;25.77;;;4.40;99.90;;;;;;4850034;29;20525;-93
2022/01/24 08:29:05;;;;;;;51.00;25.27;;;5.00;99.90;;;;;;4862284;29;20137;-91
2022/01/24 08:31:31;;;;;;;52.37;26.80;;;4.20;99.90;;;;;;4862477;29;20064;-90
2022/01/24 08:34:00;;;;;;;49.37;24.83;;;4.40;99.90;;;;;;4861198;29;20038;-88
2022/01/24 08:36:38;;;;;;;49.37;24.43;;;5.50;99.90;;;;;;4861665;29;20389;-87
2022/01/24 08:39:12;;;;;;;48.27;24.57;;;4.00;99.90;;;;;;4861211;29;20045;-89
2022/01/24 08:47:35;;;;;;;49.08;26.30;;;4.30;99.90;;;;;;5122614;23;20066;-92
2022/01/24 08:50:28;;;;;;;49.80;25.30;;;6.10;99.90;;;;;;4898549;29;20180;-93
2022/01/24 08:56:06;;;;;;;48.60;24.70;;;4.90;99.90;;;;;;4898493;29;20634;-92
2022/01/24 08:58:50;;;;;;;49.53;26.03;;;4.50;99.90;;;;;;4883120;29;20048;-92
2022/01/24 09:01:25;;;;;;;50.10;25.60;;;4.40;99.90;;;;;;4898855;29;20598;-91
2022/01/24 09:03:50;;;;;;;50.97;25.50;;;4.30;99.90;;;;;;4878520;29;20057;-91
2022/01/24 09:06:18;;;;;;;48.60;25.53;;;4.50;99.90;;;;;;4884808;23;20144;-92
2022/01/24 09:08:44;;;;;;;46.93;25.20;;;4.50;99.90;;;;;;4878575;23;20057;-92
2022/01/24 09:11:23;;;;;;;50.33;26.37;;;4.10;99.90;;;;;;4896483;29;20072;-93
2022/01/24 09:14:09;;;;;;;45.90;25.10;;;5.90;99.90;;;;;;4898194;29;20041;-93
2022/01/24 09:16:49;;;;;;;54.57;27.80;;;4.60;99.90;;;;;;4877139;29;20049;-92
2022/01/24 09:19:47;;;;;;;49.23;25.93;;;4.80;99.90;;;;;;4864855;29;20053;-92
2022/01/24 09:22:18;;;;;;;49.83;27.40;;;4.00;99.90;;;;;;4871574;29;20088;-92
2022/01/24 09:24:44;;;;;;;51.17;25.80;;;4.90;99.90;;;;;;4880117;29;20052;-91
2022/01/24 09:27:15;;;;;;;52.93;25.47;;;3.80;99.90;;;;;;4864118;29;20049;-93
2022/01/24 09:29:43;;;;;;;48.50;25.40;;;5.50;99.90;;;;;;4878982;29;20053;-92
2022/01/24 09:32:09;;;;;;;47.07;25.23;;;4.50;99.90;;;;;;4864065;29;20041;-91
2022/01/24 09:34:42;;;;;;;50.13;26.47;;;4.60;99.90;;;;;;4864122;29;20073;-92
2022/01/24 09:37:16;;;;;;;45.30;25.10;;;4.50;99.90;;;;;;4864329;29;20464;-93
2022/01/24 09:39:48;;;;;;;48.87;25.20;;;5.60;99.90;;;;;;4864527;29;20110;-93
2022/01/24 09:45:18;;;;;;;44.57;25.13;;;4.60;99.90;;;;;;4863707;29;20053;-93
2022/01/24 09:47:45;;;;;;;43.13;23.73;;;4.60;99.90;;;;;;4864971;29;20056;-92
2022/01/24 09:50:25;;;;;;;39.57;23.10;;;4.50;99.90;;;;;;4863402;29;20060;-93
2022/01/24 09:52:54;;;;;;;41.93;23.17;;;4.80;99.90;;;;;;4864400;29;20049;-93
2022/01/24 09:55:26;;;;;;;44.73;24.37;;;4.90;99.90;;;;;;4864760;29;20080;-92
2022/01/24 10:01:37;;;;;;;;;;;;;;;;;;;;;
2022/01/24 10:05:23;;;;;;;42.10;23.10;;;5.30;99.90;;;;;;4887727;29;20537;-92
2022/01/24 10:08:40;;;;;;;38.40;23.37;;;5.20;99.90;;;;;;4881912;29;20111;-92
2022/01/24 10:11:16;;;;;;;36.87;22.27;;;4.80;99.90;;;;;;4897214;29;20063;-93
2022/01/24 10:17:50;;;;;;;38.83;22.57;;;5.10;99.90;;;;;;4683162;23;20059;-93
2022/01/24 10:20:17;;;;;;;36.50;22.70;;;4.80;99.90;;;;;;4881174;29;20063;-93
2022/01/24 10:23:16;;;;;;;39.13;23.17;;;5.70;99.90;;;;;;4935506;23;20061;-93
2022/01/24 10:28:46;;;;;;;38.60;23.07;;;5.00;99.90;;;;;;4913717;23;20065;-92
2022/01/24 10:31:33;;;;;;;36.20;22.30;;;5.40;99.90;;;;;;4863131;29;20053;-93
2022/01/24 10:34:36;;;;;;;37.60;22.43;;;5.70;99.90;;;;;;4869347;29;20069;-92
2022/01/24 10:37:31;;;;;;;35.77;22.57;;;5.10;99.90;;;;;;4867291;29;20045;-93
2022/01/24 10:40:05;;;;;;;38.30;22.60;;;4.90;99.90;;;;;;4863328;29;20501;-93
2022/01/24 10:42:52;;;;;;;40.13;23.93;;;4.90;99.90;;;;;;4879149;29;20069;-91
2022/01/24 10:45:46;;;;;;;37.50;23.73;;;4.80;99.90;;;;;;4873071;23;20049;-94
2022/01/24 10:48:13;;;;;;;44.70;24.57;;;5.00;99.90;;;;;;4877876;23;20239;-94
2022/01/24 10:50:39;;;;;;;40.93;24.87;;;4.80;99.90;;;;;;4879746;29;20053;-95
2022/01/24 10:53:41;;;;;;;42.13;24.93;;;5.60;99.90;;;;;;4845182;29;20053;-94
2022/01/24 10:56:43;;;;;;;54.13;28.07;;;4.90;99.90;;;;;;4863981;29;20221;-94
2022/01/24 10:59:24;;;;;;;42.77;25.33;;;5.10;99.90;;;;;;4890291;23;20034;-96
2022/01/24 11:06:23;;;;;;;42.05;26.55;;;5.10;99.90;;;;;;4878989;29;20057;-92
2022/01/24 11:10:01;;;;;;;43.97;25.40;;;4.10;99.90;;;;;;4878761;29;20112;-96
2022/01/24 11:23:27;;;;;;;47.30;27.03;;;5.00;99.90;;;;;;4898173;29;20275;-95
2022/01/24 11:26:05;;;;;;;47.53;27.00;;;4.20;99.90;;;;;;4882572;29;20152;-95
2022/01/24 11:28:32;;;;;;;44.07;25.87;;;6.00;99.90;;;;;;4881791;29;20144;-96
2022/01/24 11:31:37;;;;;;;43.30;25.73;;;6.50;99.90;;;;;;4882483;29;20048;-96
2022/01/24 11:34:30;;;;;;;;;;;4.90;99.90;;;;;;4883362;29;20105;-95
2022/01/24 11:37:15;;;;;;;46.07;26.23;;;4.90;99.90;;;;;;4880843;23;19923;-95
2022/01/24 11:40:07;;;;;;;42.63;24.87;;;5.20;99.90;;;;;;4848361;29;20092;-94
2022/01/24 11:42:51;;;;;;;42.23;25.63;;;4.70;99.90;;;;;;4863554;29;20068;-95
2022/01/24 11:48:22;;;;;;;44.73;26.53;;;4.90;99.90;;;;;;4882811;29;19947;-95
2022/01/24 11:51:16;;;;;;;41.03;24.30;;;4.70;99.90;;;;;;4868785;29;20109;-95
2022/01/24 11:53:49;;;;;;;42.70;25.20;;;4.40;99.90;;;;;;4800697;29;20050;-95
2022/01/24 11:56:25;;;;;;;40.80;24.67;;;4.90;99.90;;;;;;4828961;29;20060;-94
2022/01/24 11:59:29;;;;;;;42.13;25.80;;;4.70;99.90;;;;;;4866866;29;20567;-93
2022/01/24 12:02:24;;;;;;;46.88;27.45;;;4.80;99.90;;;;;;4885874;29;20059;-95
2022/01/24 12:05:17;;;;;;;50.10;27.90;;;5.00;99.90;;;;;;4886306;29;20094;-94
2022/01/24 12:07:55;;;;;;;43.57;25.63;;;4.60;99.90;;;;;;4886377;29;20573;-95
2022/01/24 12:11:18;;;;;;;42.97;25.90;;;5.10;99.90;;;;;;4885891;29;20052;-95
2022/01/24 12:14:12;;;;;;;41.67;25.10;;;5.30;99.90;;;;;;4847648;29;20108;-96
2022/01/24 12:16:53;;;;;;;43.53;25.17;;;4.40;99.90;;;;;;4846409;29;20068;-94
2022/01/24 12:19:31;;;;;;;43.40;24.73;;;5.70;99.90;;;;;;4847213;29;20042;-94
2022/01/24 12:21:57;;;;;;;43.07;24.87;;;4.60;99.90;;;;;;4873278;29;20057;-92
2022/01/24 12:24:48;;;;;;;41.30;24.20;;;6.20;99.90;;;;;;4896075;29;20043;-89
2022/01/24 12:27:25;;;;;;;43.20;25.40;;;4.50;99.90;;;;;;4846237;29;20057;-90
2022/01/24 12:29:57;;;;;;;41.10;24.90;;;4.50;99.90;;;;;;4862027;29;20152;-90
2022/01/24 12:32:27;;;;;;;44.97;26.60;;;5.90;99.90;;;;;;4860978;29;20402;-90
2022/01/24 12:38:47;;;;;;;39.53;23.73;;;5.10;99.90;;;;;;4857926;29;20081;-90
2022/01/24 12:41:23;;;;;;;42.03;24.47;;;4.70;99.90;;;;;;4824015;29;20062;-89
2022/01/24 12:47:13;;;;;;;41.93;26.13;;;4.40;99.90;;;;;;4857802;29;20058;-90
2022/01/24 12:49:40;;;;;;;43.63;26.08;;;4.70;99.90;;;;;;4827585;29;20057;-90
2022/01/24 12:52:12;;;;;;;41.30;23.77;;;4.60;99.90;;;;;;4827472;29;20049;-90
2022/01/24 12:54:41;;;;;;;42.17;25.13;;;4.60;99.90;;;;;;4827367;29;20042;-90
2022/01/24 12:57:09;;;;;;;42.30;25.97;;;5.50;99.90;;;;;;4869922;29;20046;-89
2022/01/24 12:59:37;;;;;;;37.03;22.57;;;4.70;99.90;;;;;;4851899;29;20044;-89
2022/01/24 13:02:22;;;;;;;39.47;24.40;;;4.60;99.90;;;;;;4849030;29;20057;-89
2022/01/24 13:04:51;;;;;;;47.57;25.13;;;4.70;99.90;;;;;;4845485;29;20132;-89
2022/01/24 13:07:17;;;;;;;39.27;23.80;;;5.50;99.90;;;;;;4845171;29;20053;-89
2022/01/24 13:09:42;;;;;;;34.33;21.53;;;4.70;99.90;;;;;;4845155;29;20045;-89
2022/01/24 13:12:21;;;;;;;36.77;22.73;;;4.50;99.90;;;;;;4845989;29;20186;-89
2022/01/24 13:14:57;;;;;;;39.73;26.27;;;4.50;99.90;;;;;;4845196;29;20401;-89
2022/01/24 13:20:56;;;;;;;42.08;23.63;;;4.50;99.90;;;;;;4845759;29;20103;-89
2022/01/24 13:23:10;;;;;;;32.63;19.90;;;4.70;99.90;;;;;;4844489;29;20384;-90
2022/01/24 13:25:38;;;;;;;33.90;23.20;;;5.50;99.90;;;;;;4845689;29;20057;-90
2022/01/24 13:28:05;;;;;;;40.33;25.13;;;4.60;99.90;;;;;;4844656;29;20045;-89
2022/01/24 13:31:02;;;;;;;36.43;20.77;;;5.40;99.90;;;;;;4860561;29;20053;-90
2022/01/24 13:33:34;;;;;;;39.57;22.83;;;4.60;99.90;;;;;;4845256;29;20053;-90
2022/01/24 13:36:08;;;;;;;36.13;21.80;;;4.30;99.90;;;;;;4861520;29;20060;-89
2022/01/24 13:38:51;;;;;;;36.67;25.07;;;4.60;99.90;;;;;;4870424;29;20064;-90
2022/01/24 13:41:20;;;;;;;35.93;22.03;;;4.30;99.90;;;;;;4863181;29;20056;-89
2022/01/24 13:44:04;;;;;;;35.23;23.60;;;4.40;99.90;;;;;;4878282;29;20069;-89
2022/01/24 13:46:39;;;;;;;35.53;23.13;;;4.30;99.90;;;;;;4876147;23;20085;-89
2022/01/24 13:49:08;;;;;;;33.23;21.60;;;4.50;99.90;;;;;;4863722;29;20091;-89
2022/01/24 13:51:39;;;;;;;34.87;22.10;;;4.50;99.90;;;;;;4862769;29;20541;-89
2022/01/24 13:54:26;;;;;;;36.30;23.43;;;4.40;99.90;;;;;;4863621;29;20139;-89
2022/01/24 13:56:55;;;;;;;41.73;24.97;;;4.40;99.90;;;;;;4862000;29;20053;-89
2022/01/24 13:59:27;;;;;;;35.17;23.97;;;4.40;99.90;;;;;;4863200;29;20161;-89
2022/01/24 14:01:57;;;;;;;34.13;22.57;;;4.40;99.90;;;;;;4863066;29;20049;-89
2022/01/24 14:04:43;;;;;;;37.13;24.13;;;4.40;99.90;;;;;;4862881;29;20362;-89
2022/01/24 14:07:43;;;;;;;38.70;23.17;;;4.40;99.90;;;;;;4863116;29;20197;-89
2022/01/24 14:10:15;;;;;;;34.90;22.75;;;4.40;99.90;;;;;;4863745;29;20421;-89
2022/01/24 14:12:55;;;;;;;37.73;22.47;;;5.30;99.90;;;;;;4875068;29;20033;-90
2022/01/24 14:16:05;;;;;;;;;;;;;;;;;;;;;
2022/01/24 14:18:43;;;;;;;34.83;21.70;;;4.10;99.90;;;;;;4862062;29;20053;-89
2022/01/24 14:21:13;;;;;;;33.10;20.30;;;4.00;99.90;;;;;;4862611;29;20085;-89
2022/01/24 14:23:39;;;;;;;31.47;18.97;;;4.10;99.90;;;;;;4862618;29;20052;-89
2022/01/24 14:26:23;;;;;;;30.33;19.57;;;4.00;99.90;;;;;;4862360;29;20524;-89
2022/01/24 14:29:07;;;;;;;28.67;19.30;;;4.00;99.90;;;;;;4863182;29;20045;-89
2022/01/24 14:31:45;;;;;;;31.85;20.15;;;4.20;99.90;;;;;;4861636;29;20104;-89
2022/01/24 14:34:22;;;;;;;31.30;18.47;;;3.80;99.90;;;;;;4863250;29;20045;-94
2022/01/24 14:39:46;;;;;;;;;;;4.00;99.90;;;;;;4878010;23;20147;-90
2022/01/24 14:42:26;;;;;;;30.53;18.43;;;4.20;99.90;;;;;;4877247;29;20439;-89
2022/01/24 14:44:54;;;;;;;30.13;18.50;;;4.20;99.90;;;;;;4862629;29;20053;-90
2022/01/24 14:47:24;;;;;;;32.80;20.83;;;4.20;99.90;;;;;;4862144;29;20093;-89
2022/01/24 14:49:50;;;;;;;32.47;22.13;;;4.30;99.90;;;;;;4876807;29;20063;-89
2022/01/24 14:52:19;;;;;;;27.03;17.87;;;4.20;99.90;;;;;;4863857;29;20044;-89
2022/01/24 14:54:45;;;;;;;26.87;17.17;;;4.20;99.90;;;;;;4861596;29;20049;-89
2022/01/24 14:57:12;;;;;;;28.30;18.20;;;4.10;99.90;;;;;;4862660;29;20048;-89
2022/01/24 14:59:42;;;;;;;27.77;17.47;;;3.50;99.90;;;;;;4877267;29;20057;-89
2022/01/24 15:02:11;;;;;;;30.37;20.13;;;4.20;99.90;;;;;;4862501;29;20478;-90
2022/01/24 15:04:37;;;;;;;31.13;20.47;;;4.20;99.90;;;;;;4878134;29;20143;-90
2022/01/24 15:07:06;;;;;;;30.13;19.03;;;4.20;99.90;;;;;;4861840;29;20471;-91
2022/01/24 15:09:35;;;;;;;29.07;18.17;;;5.00;99.90;;;;;;4862256;29;20044;-88
2022/01/24 15:12:06;;;;;;;30.90;18.53;;;4.10;99.90;;;;;;4862866;29;20053;-89
2022/01/24 15:14:39;;;;;;;29.43;18.47;;;4.10;99.90;;;;;;4876821;29;20045;-90
2022/01/24 15:25:30;;;;;;;32.33;20.45;;;4.20;99.90;;;;;;4868704;29;20052;-88
2022/01/24 15:27:52;;;;;;;36.43;21.53;;;4.20;99.90;;;;;;4882883;29;20049;-89
2022/01/24 15:30:21;;;;;;;91.93;43.17;;;4.20;99.90;;;;;;4865372;29;20045;-88
2022/01/24 15:32:47;;;;;;;36.17;21.63;;;4.20;99.90;;;;;;4865787;29;20101;-89
2022/01/24 15:35:16;;;;;;;36.80;21.37;;;4.10;99.90;;;;;;4880125;29;20041;-89
2022/01/24 15:38:04;;;;;;;40.07;26.30;;;4.00;99.90;;;;;;4865634;29;20052;-90
2022/01/24 15:40:31;;;;;;;33.83;20.97;;;3.80;99.90;;;;;;4865012;29;20490;-89
2022/01/24 15:43:27;;;;;;;34.67;21.10;;;3.90;99.90;;;;;;4864693;29;20048;-89
2022/01/24 15:48:54;;;;;;;36.67;20.53;;;3.90;99.90;;;;;;4865585;29;20064;-89
2022/01/24 15:51:25;;;;;;;38.73;22.53;;;4.20;99.90;;;;;;4865031;29;20045;-89
2022/01/24 15:53:51;;;;;;;37.60;23.57;;;3.70;99.90;;;;;;4865473;29;20396;-90
2022/01/24 15:59:10;;;;;;;38.40;23.23;;;3.90;99.90;;;;;;4865113;29;20454;-90
2022/01/24 16:02:01;;;;;;;34.63;20.23;;;3.90;99.90;;;;;;4861740;29;20035;-90
2022/01/24 16:04:33;;;;;;;36.50;21.60;;;4.20;99.90;;;;;;4862836;29;20380;-92
2022/01/24 16:07:00;;;;;;;36.37;22.30;;;3.70;99.90;;;;;;4849634;29;20049;-91
2022/01/24 16:09:38;;;;;;;35.23;20.60;;;3.80;99.90;;;;;;4852366;29;20036;-90
2022/01/24 16:12:23;;;;;;;35.37;21.23;;;4.00;99.90;;;;;;4857861;29;20494;-92
2022/01/24 16:14:48;;;;;;;35.07;21.10;;;4.20;99.90;;;;;;4854398;29;20037;-92
2022/01/24 16:17:16;;;;;;;34.13;20.53;;;3.80;99.90;;;;;;4852388;29;20124;-91
2022/01/24 16:19:51;;;;;;;34.30;20.17;;;3.90;99.90;;;;;;4868521;29;20049;-90
2022/01/24 16:22:17;;;;;;;37.00;21.40;;;4.10;99.90;;;;;;4853304;29;20051;-91